Time;durP1;ratioP1;P1;durP2;ratioP2;P2;SDS_P1;SDS_P2;PMS_P1;PMS_P2;Temp;Humidity;BMP_temperature;BMP_pressure;BME280_temperature;BME280_humidity;BME280_pressure;Samples;Min_cycle;Max_cycle;Signal;HPM_P1;HPM_P2
2022/11/29 00:00:57;;;;;;;;;;;;;;;;;;5011855;28;1423;-76
2022/11/29 00:03:24;;;;;;;;;;;;;;;;;;5010348;28;1037;-77
2022/11/29 00:05:52;;;;;;;;;;;;;;;;;;5011417;28;846;-77
2022/11/29 00:08:18;;;;;;;;;;;;;;;;;;5011159;28;1119;-74
2022/11/29 00:10:44;;;;;;;;;;;;;;;;;;4993510;28;1975;-76
2022/11/29 00:13:10;;;;;;;;;;;;;;;;;;5006021;28;1500;-76
2022/11/29 00:15:37;;;;;;;;;;;;;;;;;;4991565;28;894;-76
2022/11/29 00:18:03;;;;;;;;;;;;;;;;;;4974369;28;1252;-76
2022/11/29 00:20:30;;;;;;;;;;;;;;;;;;4991525;28;1383;-76
2022/11/29 00:22:57;;;;;;;;;;;;;;;;;;4990854;28;1105;-76
2022/11/29 00:25:23;;;;;;;;;;;;;;;;;;4991454;28;985;-76
2022/11/29 00:27:50;;;;;;;;;;;;;;;;;;4991804;28;799;-76
2022/11/29 00:30:16;;;;;;;;;;;;;;;;;;4991319;28;1914;-77
2022/11/29 00:32:43;;;;;;;;;;;;;;;;;;4991039;28;1001;-76
2022/11/29 00:35:09;;;;;;;;;;;;;;;;;;4991663;28;882;-76
2022/11/29 00:37:36;;;;;;;;;;;;;;;;;;4991390;28;771;-76
2022/11/29 00:40:03;;;;;;;;;;;;;;;;;;4974127;28;1537;-76
2022/11/29 00:42:29;;;;;;;;;;;;;;;;;;4993491;28;1087;-76
2022/11/29 00:44:55;;;;;;;;;;;;;;;;;;4995287;28;1147;-76
2022/11/29 00:47:21;;;;;;;;;;;;;;;;;;4995076;28;1112;-76
2022/11/29 00:49:48;;;;;;;;;;;;;;;;;;4994714;28;1981;-76
2022/11/29 00:52:14;;;;;;;;;;;;;;;;;;4994196;28;700;-75
2022/11/29 00:54:41;;;;;;;;;;;;;;;;;;5011047;28;1160;-77
2022/11/29 00:57:08;;;;;;;;;;;;;;;;;;4997166;28;1141;-75
2022/11/29 00:59:34;;;;;;;;;;;;;;;;;;4997004;28;1389;-75
2022/11/29 01:02:00;;;;;;;;;;;;;;;;;;5013894;28;842;-76
2022/11/29 01:04:27;;;;;;;;;;;;;;;;;;5014340;28;933;-76
2022/11/29 01:06:53;;;;;;;;;;;;;;;;;;4996649;28;1235;-76
2022/11/29 01:09:19;;;;;;;;;;;;;;;;;;5014290;28;949;-76
2022/11/29 01:11:48;;;;;;;;;;;;;;;;;;5013536;28;1979;-76
2022/11/29 01:14:14;;;;;;;;;;;;;;;;;;5014203;28;859;-76
2022/11/29 01:16:41;;;;;;;;;;;;;;;;;;5014126;28;791;-76
2022/11/29 01:19:07;;;;;;;;;;;;;;;;;;5014169;28;1202;-76
2022/11/29 01:21:33;;;;;;;;;;;;;;;;;;5013354;28;1332;-76
2022/11/29 01:24:00;;;;;;;;;;;;;;;;;;5013998;28;948;-76
2022/11/29 01:26:27;;;;;;;;;;;;;;;;;;5013833;28;801;-75
2022/11/29 01:28:55;;;;;;;;;;;;;;;;;;5014274;28;1405;-76
2022/11/29 01:31:23;;;;;;;;;;;;;;;;;;5013174;28;1914;-75
2022/11/29 01:33:52;;;;;;;;;;;;;;;;;;4996473;28;1813;-77
2022/11/29 01:36:18;;;;;;;;;;;;;;;;;;5013824;28;953;-76
2022/11/29 01:38:44;;;;;;;;;;;;;;;;;;5014033;28;866;-77
2022/11/29 01:41:11;;;;;;;;;;;;;;;;;;5050321;22;3654;-77
2022/11/29 01:43:50;;;;;;;;;;;;;;;;;;5072711;28;1069;-77
2022/11/29 01:46:18;;;;;;;;;;;;;;;;;;5073727;28;933;-77
2022/11/29 01:48:44;;;;;;;;;;;;;;;;;;5074998;28;1063;-77
2022/11/29 01:51:10;;;;;;;;;;;;;;;;;;5057037;28;1918;-74
2022/11/29 01:53:37;;;;;;;;;;;;;;;;;;5073863;28;1150;-77
2022/11/29 01:56:04;;;;;;;;;;;;;;;;;;5073728;28;1075;-77
2022/11/29 01:58:31;;;;;;;;;;;;;;;;;;5055920;28;1096;-77
2022/11/29 02:00:57;;;;;;;;;;;;;;;;;;5073526;28;1320;-77
2022/11/29 02:03:24;;;;;;;;;;;;;;;;;;5054500;28;1091;-77
2022/11/29 02:05:51;;;;;;;;;;;;;;;;;;5073961;28;941;-77
2022/11/29 02:08:19;;;;;;;;;;;;;;;;;;5070536;28;1915;-76
2022/11/29 02:10:50;;;;;;;;;;;;;;;;;;5067234;28;1975;-77
2022/11/29 02:13:19;;;;;;;;;;;;;;;;;;5071500;28;1110;-77
2022/11/29 02:15:46;;;;;;;;;;;;;;;;;;5055493;28;1090;-77
2022/11/29 02:18:13;;;;;;;;;;;;;;;;;;5072749;28;1039;-77
2022/11/29 02:20:51;;;;;;;;;;;;;;;;;;5063655;28;1484;-77
2022/11/29 02:23:23;;;;;;;;;;;;;;;;;;5052328;28;937;-76
2022/11/29 02:25:54;;;;;;;;;;;;;;;;;;5053088;28;1064;-77
2022/11/29 02:28:39;;;;;;;;;;;;;;;;;;5052895;28;1064;-78
2022/11/29 02:31:23;;;;;;;;;;;;;;;;;;5049231;28;1985;-77
2022/11/29 02:33:54;;;;;;;;;;;;;;;;;;5052827;28;917;-77
2022/11/29 02:36:41;;;;;;;;;;;;;;;;;;5053215;28;940;-77
2022/11/29 02:39:16;;;;;;;;;;;;;;;;;;5049390;28;942;-77
2022/11/29 02:41:49;;;;;;;;;;;;;;;;;;5033782;28;1332;-77
2022/11/29 02:44:39;;;;;;;;;;;;;;;;;;5052515;28;878;-77
2022/11/29 02:47:08;;;;;;;;;;;;;;;;;;5024641;28;1264;-77
2022/11/29 02:49:41;;;;;;;;;;;;;;;;;;5034416;28;1175;-77
2022/11/29 02:52:07;;;;;;;;;;;;;;;;;;5051478;28;2040;-77
2022/11/29 02:54:34;;;;;;;;;;;;;;;;;;5049175;28;1366;-77
2022/11/29 02:57:02;;;;;;;;;;;;;;;;;;5054898;28;1322;-77
2022/11/29 02:59:38;;;;;;;;;;;;;;;;;;5054764;28;1105;-77
2022/11/29 03:02:06;;;;;;;;;;;;;;;;;;5071709;28;1411;-77
2022/11/29 03:04:33;;;;;;;;;;;;;;;;;;5053422;28;1360;-77
2022/11/29 03:07:03;;;;;;;;;;;;;;;;;;5072525;28;1054;-77
2022/11/29 03:09:32;;;;;;;;;;;;;;;;;;5071862;28;1079;-77
2022/11/29 03:12:00;;;;;;;;;;;;;;;;;;5071079;28;1980;-77
2022/11/29 03:14:26;;;;;;;;;;;;;;;;;;5071977;28;1079;-77
2022/11/29 03:16:56;;;;;;;;;;;;;;;;;;5071956;28;1061;-77
2022/11/29 03:19:27;;;;;;;;;;;;;;;;;;5071972;28;952;-77
2022/11/29 03:21:56;;;;;;;;;;;;;;;;;;5071411;28;1415;-77
2022/11/29 03:24:25;;;;;;;;;;;;;;;;;;5071836;28;849;-77
2022/11/29 03:26:54;;;;;;;;;;;;;;;;;;5071824;28;1067;-77
2022/11/29 03:29:21;;;;;;;;;;;;;;;;;;5071855;28;1130;-77
2022/11/29 03:31:50;;;;;;;;;;;;;;;;;;5053004;28;1902;-78
2022/11/29 03:34:17;;;;;;;;;;;;;;;;;;5071585;28;960;-77
2022/11/29 03:36:45;;;;;;;;;;;;;;;;;;5053683;28;1251;-77
2022/11/29 03:39:15;;;;;;;;;;;;;;;;;;5053802;28;1135;-77
2022/11/29 03:41:43;;;;;;;;;;;;;;;;;;5070893;28;1324;-77
2022/11/29 03:44:11;;;;;;;;;;;;;;;;;;5053158;28;1328;-77
2022/11/29 03:46:38;;;;;;;;;;;;;;;;;;5071254;28;1111;-77
2022/11/29 03:49:06;;;;;;;;;;;;;;;;;;5053586;28;1302;-77
2022/11/29 03:51:45;;;;;;;;;;;;;;;;;;5070178;28;1973;-77
2022/11/29 03:54:12;;;;;;;;;;;;;;;;;;5053604;28;1458;-77
2022/11/29 03:56:39;;;;;;;;;;;;;;;;;;5071173;28;1127;-77
2022/11/29 03:59:12;;;;;;;;;;;;;;;;;;5053151;28;1094;-76
2022/11/29 04:01:52;;;;;;;;;;;;;;;;;;5068762;28;1986;-77
2022/11/29 04:04:33;;;;;;;;;;;;;;;;;;5067175;28;2067;-76
2022/11/29 04:07:02;;;;;;;;;;;;;;;;;;5053085;28;1098;-76
2022/11/29 04:09:31;;;;;;;;;;;;;;;;;;5071404;28;1005;-77
2022/11/29 04:12:03;;;;;;;;;;;;;;;;;;5052559;28;1914;-77
2022/11/29 04:14:51;;;;;;;;;;;;;;;;;;5041998;28;1518;-77
2022/11/29 04:17:35;;;;;;;;;;;;;;;;;;5033706;28;1171;-76
2022/11/29 04:20:13;;;;;;;;;;;;;;;;;;5030654;28;1394;-77
2022/11/29 04:23:07;;;;;;;;;;;;;;;;;;5036398;28;1172;-77
2022/11/29 04:25:36;;;;;;;;;;;;;;;;;;5013712;28;1193;-77
2022/11/29 04:28:22;;;;;;;;;;;;;;;;;;5037304;28;1166;-78
2022/11/29 04:30:51;;;;;;;;;;;;;;;;;;5054772;28;1965;-77
2022/11/29 04:33:28;;;;;;;;;;;;;;;;;;5050062;28;1425;-79
2022/11/29 04:35:58;;;;;;;;;;;;;;;;;;5074876;28;1430;-79
2022/11/29 04:38:29;;;;;;;;;;;;;;;;;;5068103;28;1407;-79
2022/11/29 04:41:01;;;;;;;;;;;;;;;;;;5076889;28;1483;-79
2022/11/29 04:43:34;;;;;;;;;;;;;;;;;;5088241;28;1247;-78
2022/11/29 04:46:11;;;;;;;;;;;;;;;;;;5098876;28;889;-78
2022/11/29 04:48:41;;;;;;;;;;;;;;;;;;5089263;28;1497;-78
2022/11/29 04:51:11;;;;;;;;;;;;;;;;;;5090755;28;1910;-79
2022/11/29 04:53:48;;;;;;;;;;;;;;;;;;5099749;28;1137;-79
2022/11/29 04:56:16;;;;;;;;;;;;;;;;;;5098818;28;1102;-80
2022/11/29 04:58:43;;;;;;;;;;;;;;;;;;5098989;28;1062;-80
2022/11/29 05:01:12;;;;;;;;;;;;;;;;;;5089237;28;1406;-79
2022/11/29 05:03:39;;;;;;;;;;;;;;;;;;5073621;28;1389;-79
2022/11/29 05:06:13;;;;;;;;;;;;;;;;;;5069746;28;1462;-79
2022/11/29 05:08:42;;;;;;;;;;;;;;;;;;5065549;28;1495;-80
2022/11/29 05:11:11;;;;;;;;;;;;;;;;;;5061659;28;1981;-80
2022/11/29 05:13:39;;;;;;;;;;;;;;;;;;5064430;28;1668;-79
2022/11/29 05:16:14;;;;;;;;;;;;;;;;;;5069177;28;1129;-80
2022/11/29 05:18:47;;;;;;;;;;;;;;;;;;5097064;28;1395;-80
2022/11/29 05:21:16;;;;;;;;;;;;;;;;;;5084793;28;1437;-79
2022/11/29 05:23:45;;;;;;;;;;;;;;;;;;5100256;28;1126;-80
2022/11/29 05:26:12;;;;;;;;;;;;;;;;;;5101112;28;876;-80
2022/11/29 05:28:42;;;;;;;;;;;;;;;;;;5099410;28;1145;-79
2022/11/29 05:31:25;;;;;;;;;;;;;;;;;;5081834;28;1981;-79
2022/11/29 05:33:59;;;;;;;;;;;;;;;;;;5098534;28;1541;-79
2022/11/29 05:36:30;;;;;;;;;;;;;;;;;;5080500;28;1272;-79
2022/11/29 05:39:00;;;;;;;;;;;;;;;;;;5089622;28;1178;-79
2022/11/29 05:41:31;;;;;;;;;;;;;;;;;;5065859;28;1404;-79
2022/11/29 05:44:00;;;;;;;;;;;;;;;;;;5055901;28;1712;-79
2022/11/29 05:46:29;;;;;;;;;;;;;;;;;;5050479;28;1266;-79
2022/11/29 05:48:57;;;;;;;;;;;;;;;;;;5068911;28;1232;-80
2022/11/29 05:51:29;;;;;;;;;;;;;;;;;;5048791;28;1951;-78
2022/11/29 05:53:59;;;;;;;;;;;;;;;;;;5068896;28;1246;-79
2022/11/29 05:56:26;;;;;;;;;;;;;;;;;;5069587;28;1302;-80
2022/11/29 05:58:54;;;;;;;;;;;;;;;;;;5078828;28;1139;-80
2022/11/29 06:01:21;;;;;;;;;;;;;;;;;;5079204;28;1412;-77
2022/11/29 06:03:51;;;;;;;;;;;;;;;;;;5078337;28;682;-79
2022/11/29 06:06:19;;;;;;;;;;;;;;;;;;5061275;28;1164;-79
2022/11/29 06:08:48;;;;;;;;;;;;;;;;;;5061551;28;1280;-79
2022/11/29 06:11:15;;;;;;;;;;;;;;;;;;5061813;28;1318;-79
2022/11/29 06:13:48;;;;;;;;;;;;;;;;;;5079907;28;1977;-79
2022/11/29 06:16:32;;;;;;;;;;;;;;;;;;5060605;28;1173;-79
2022/11/29 06:19:11;;;;;;;;;;;;;;;;;;5078868;28;1531;-79
2022/11/29 06:21:39;;;;;;;;;;;;;;;;;;5079140;28;1487;-79
2022/11/29 06:24:14;;;;;;;;;;;;;;;;;;5076956;28;1423;-78
2022/11/29 06:26:54;;;;;;;;;;;;;;;;;;5048968;28;1219;-78
2022/11/29 06:29:24;;;;;;;;;;;;;;;;;;5065410;28;1142;-79
2022/11/29 06:31:51;;;;;;;;;;;;;;;;;;5058912;28;1891;-79
2022/11/29 06:34:18;;;;;;;;;;;;;;;;;;5064156;28;1096;-79
2022/11/29 06:36:45;;;;;;;;;;;;;;;;;;5064992;28;1259;-79
2022/11/29 06:39:13;;;;;;;;;;;;;;;;;;5064992;28;1835;-79
2022/11/29 06:41:39;;;;;;;;;;;;;;;;;;5059852;28;1484;-78
2022/11/29 06:44:05;;;;;;;;;;;;;;;;;;5065923;28;1227;-79
2022/11/29 06:46:34;;;;;;;;;;;;;;;;;;5065173;28;1227;-79
2022/11/29 06:49:02;;;;;;;;;;;;;;;;;;5048575;28;1291;-78
2022/11/29 06:51:30;;;;;;;;;;;;;;;;;;5060757;28;1376;-79
2022/11/29 06:53:58;;;;;;;;;;;;;;;;;;5066654;28;1139;-79
2022/11/29 06:56:26;;;;;;;;;;;;;;;;;;5076485;28;972;-78
2022/11/29 06:58:56;;;;;;;;;;;;;;;;;;5073822;28;921;-79
2022/11/29 07:01:23;;;;;;;;;;;;;;;;;;5056919;28;1427;-78
2022/11/29 07:03:53;;;;;;;;;;;;;;;;;;5077354;28;1031;-79
2022/11/29 07:06:20;;;;;;;;;;;;;;;;;;5075684;28;1123;-79
2022/11/29 07:08:47;;;;;;;;;;;;;;;;;;5073990;28;1140;-79
2022/11/29 07:11:13;;;;;;;;;;;;;;;;;;5069103;28;1394;-78
2022/11/29 07:13:41;;;;;;;;;;;;;;;;;;5067568;28;1985;-78
2022/11/29 07:16:09;;;;;;;;;;;;;;;;;;5066079;28;1329;-79
2022/11/29 07:18:38;;;;;;;;;;;;;;;;;;5063863;28;1330;-79
2022/11/29 07:21:07;;;;;;;;;;;;;;;;;;5065498;28;1485;-79
2022/11/29 07:23:34;;;;;;;;;;;;;;;;;;5064458;28;1286;-79
2022/11/29 07:26:03;;;;;;;;;;;;;;;;;;5065481;28;1219;-78
2022/11/29 07:28:32;;;;;;;;;;;;;;;;;;5068574;28;1286;-79
2022/11/29 07:31:02;;;;;;;;;;;;;;;;;;5069986;28;1503;-78
2022/11/29 07:33:29;;;;;;;;;;;;;;;;;;5068648;28;1918;-79
2022/11/29 07:35:56;;;;;;;;;;;;;;;;;;5066402;28;1282;-79
2022/11/29 07:38:24;;;;;;;;;;;;;;;;;;5049937;28;1250;-78
2022/11/29 07:40:51;;;;;;;;;;;;;;;;;;5059545;28;1388;-79
2022/11/29 07:43:20;;;;;;;;;;;;;;;;;;5064662;28;1227;-78
2022/11/29 07:45:46;;;;;;;;;;;;;;;;;;5066136;28;1235;-79
2022/11/29 07:48:15;;;;;;;;;;;;;;;;;;5046537;28;1322;-79
2022/11/29 07:50:41;;;;;;;;;;;;;;;;;;5045229;28;1416;-79
2022/11/29 07:53:08;;;;;;;;;;;;;;;;;;5065692;28;1971;-79
2022/11/29 07:55:35;;;;;;;;;;;;;;;;;;5063601;28;1246;-78
2022/11/29 07:58:02;;;;;;;;;;;;;;;;;;5041110;28;1120;-79
2022/11/29 08:00:28;;;;;;;;;;;;;;;;;;5058653;28;1330;-80
2022/11/29 08:02:54;;;;;;;;;;;;;;;;;;5057937;28;1063;-79
2022/11/29 08:05:22;;;;;;;;;;;;;;;;;;5064601;28;1238;-80
2022/11/29 08:07:49;;;;;;;;;;;;;;;;;;5064921;28;1295;-79
2022/11/29 08:10:15;;;;;;;;;;;;;;;;;;5045855;28;1415;-79
2022/11/29 08:12:42;;;;;;;;;;;;;;;;;;5078831;28;1894;-78
2022/11/29 08:15:09;;;;;;;;;;;;;;;;;;5059926;28;1269;-80
2022/11/29 08:17:36;;;;;;;;;;;;;;;;;;5057970;28;1235;-80
2022/11/29 08:20:02;;;;;;;;;;;;;;;;;;5071844;28;1131;-77
2022/11/29 08:22:30;;;;;;;;;;;;;;;;;;5060576;28;1383;-78
2022/11/29 08:24:56;;;;;;;;;;;;;;;;;;5080599;28;1307;-79
2022/11/29 08:27:23;;;;;;;;;;;;;;;;;;5059664;28;1571;-79
2022/11/29 08:29:49;;;;;;;;;;;;;;;;;;5038618;28;1258;-79
2022/11/29 08:32:15;;;;;;;;;;;;;;;;;;5057493;28;1910;-78
2022/11/29 08:34:41;;;;;;;;;;;;;;;;;;5049949;28;1276;-77
2022/11/29 08:37:08;;;;;;;;;;;;;;;;;;5072176;28;1191;-79
2022/11/29 08:39:35;;;;;;;;;;;;;;;;;;5074119;28;923;-78
2022/11/29 08:42:01;;;;;;;;;;;;;;;;;;5073346;28;1428;-78
2022/11/29 08:44:28;;;;;;;;;;;;;;;;;;5073907;28;936;-78
2022/11/29 08:50:00;;;;;;;;;;;;;;;;;;5074484;28;1039;-78
2022/11/29 08:55:10;;;;;;;;;;;;;;;;;;5052811;28;1169;-79
2022/11/29 08:57:37;;;;;;;;;;;;;;;;;;5066168;28;1274;-79
2022/11/29 09:00:04;;;;;;;;;;;;;;;;;;5065039;28;1302;-79
2022/11/29 09:02:30;;;;;;;;;;;;;;;;;;5067829;28;1371;-79
2022/11/29 09:04:56;;;;;;;;;;;;;;;;;;5071377;28;1261;-79
2022/11/29 09:07:22;;;;;;;;;;;;;;;;;;5077104;28;1269;-78
2022/11/29 09:09:49;;;;;;;;;;;;;;;;;;5077222;28;1147;-78
2022/11/29 09:12:16;;;;;;;;;;;;;;;;;;5070121;28;1967;-79
2022/11/29 09:14:42;;;;;;;;;;;;;;;;;;5078316;28;969;-79
2022/11/29 09:17:08;;;;;;;;;;;;;;;;;;5078415;28;1535;-78
2022/11/29 09:19:35;;;;;;;;;;;;;;;;;;5077672;28;1143;-79
2022/11/29 09:22:02;;;;;;;;;;;;;;;;;;5076653;28;1341;-79
2022/11/29 09:24:28;;;;;;;;;;;;;;;;;;5057947;28;1297;-79
2022/11/29 09:26:55;;;;;;;;;;;;;;;;;;5059258;28;1301;-78
2022/11/29 09:29:22;;;;;;;;;;;;;;;;;;5076759;28;1056;-78
2022/11/29 09:31:49;;;;;;;;;;;;;;;;;;5058653;28;1467;-78
2022/11/29 09:34:15;;;;;;;;;;;;;;;;;;5076265;28;1977;-77
2022/11/29 09:36:42;;;;;;;;;;;;;;;;;;5077135;28;937;-78
2022/11/29 09:39:11;;;;;;;;;;;;;;;;;;5056179;28;1351;-78
2022/11/29 09:41:40;;;;;;;;;;;;;;;;;;5075534;28;1390;-78
2022/11/29 09:44:08;;;;;;;;;;;;;;;;;;5057530;28;906;-78
2022/11/29 09:46:37;;;;;;;;;;;;;;;;;;5058612;28;1187;-78
2022/11/29 09:49:07;;;;;;;;;;;;;;;;;;5075666;28;1075;-77
2022/11/29 09:51:35;;;;;;;;;;;;;;;;;;5057158;28;1590;-78
2022/11/29 09:54:06;;;;;;;;;;;;;;;;;;5057598;28;1914;-78
2022/11/29 09:56:34;;;;;;;;;;;;;;;;;;5074948;28;925;-78
2022/11/29 09:59:01;;;;;;;;;;;;;;;;;;5075771;28;1095;-77
2022/11/29 10:01:28;;;;;;;;;;;;;;;;;;5073756;28;1308;-77
2022/11/29 10:03:57;;;;;;;;;;;;;;;;;;5075118;28;1089;-78
2022/11/29 10:06:24;;;;;;;;;;;;;;;;;;5067297;28;1135;-78
2022/11/29 10:08:51;;;;;;;;;;;;;;;;;;5053880;28;1059;-78
2022/11/29 10:11:19;;;;;;;;;;;;;;;;;;5053797;28;1337;-78
2022/11/29 10:13:46;;;;;;;;;;;;;;;;;;5053562;28;1906;-78
2022/11/29 10:16:14;;;;;;;;;;;;;;;;;;5054783;28;944;-77
2022/11/29 10:18:42;;;;;;;;;;;;;;;;;;5056685;28;997;-79
2022/11/29 10:21:11;;;;;;;;;;;;;;;;;;5057671;28;1298;-78
2022/11/29 10:23:38;;;;;;;;;;;;;;;;;;5055113;28;1009;-79
2022/11/29 10:26:06;;;;;;;;;;;;;;;;;;5054523;28;1067;-78
2022/11/29 10:28:33;;;;;;;;;;;;;;;;;;5063087;28;1156;-78
2022/11/29 10:31:01;;;;;;;;;;;;;;;;;;5052657;28;1345;-77
2022/11/29 10:33:29;;;;;;;;;;;;;;;;;;5035751;28;1918;-77
2022/11/29 10:35:55;;;;;;;;;;;;;;;;;;5056004;28;1479;-78
2022/11/29 10:38:23;;;;;;;;;;;;;;;;;;5055925;28;1149;-79
2022/11/29 10:40:50;;;;;;;;;;;;;;;;;;5056484;28;1357;-79
2022/11/29 10:43:16;;;;;;;;;;;;;;;;;;5074244;28;1122;-79
2022/11/29 10:45:44;;;;;;;;;;;;;;;;;;5074654;28;873;-79
2022/11/29 10:48:11;;;;;;;;;;;;;;;;;;5041634;28;1326;-79
2022/11/29 10:50:37;;;;;;;;;;;;;;;;;;5064858;28;1533;-78
2022/11/29 10:53:05;;;;;;;;;;;;;;;;;;5073677;28;1922;-79
2022/11/29 10:55:34;;;;;;;;;;;;;;;;;;5074526;28;961;-78
2022/11/29 10:58:07;;;;;;;;;;;;;;;;;;5055529;28;1250;-78
2022/11/29 11:00:41;;;;;;;;;;;;;;;;;;5044478;28;1401;-78
2022/11/29 11:03:14;;;;;;;;;;;;;;;;;;5052202;28;1096;-78
2022/11/29 11:05:40;;;;;;;;;;;;;;;;;;5054959;28;925;-79
2022/11/29 11:08:15;;;;;;;;;;;;;;;;;;5054495;28;1079;-79
2022/11/29 11:10:42;;;;;;;;;;;;;;;;;;5053498;28;1497;-79
2022/11/29 11:13:18;;;;;;;;;;;;;;;;;;5068679;28;1946;-78
2022/11/29 11:15:45;;;;;;;;;;;;;;;;;;5075690;28;738;-78
2022/11/29 11:18:20;;;;;;;;;;;;;;;;;;5076821;28;1016;-79
2022/11/29 11:20:51;;;;;;;;;;;;;;;;;;5059071;28;1341;-78
2022/11/29 11:23:21;;;;;;;;;;;;;;;;;;5062932;28;1147;-78
2022/11/29 11:25:48;;;;;;;;;;;;;;;;;;5062804;28;1040;-77
2022/11/29 11:28:19;;;;;;;;;;;;;;;;;;5082017;28;1119;-78
2022/11/29 11:30:49;;;;;;;;;;;;;;;;;;5077657;28;1607;-79
2022/11/29 11:33:17;;;;;;;;;;;;;;;;;;5075477;28;1899;-77
2022/11/29 11:35:44;;;;;;;;;;;;;;;;;;5075644;28;1067;-79
2022/11/29 11:38:14;;;;;;;;;;;;;;;;;;5076777;28;956;-78
2022/11/29 11:40:41;;;;;;;;;;;;;;;;;;5057889;28;1415;-78
2022/11/29 11:43:11;;;;;;;;;;;;;;;;;;5057655;28;1429;-79
2022/11/29 11:45:37;;;;;;;;;;;;;;;;;;5076474;28;1063;-79
2022/11/29 11:48:05;;;;;;;;;;;;;;;;;;5076141;28;1095;-79
2022/11/29 11:50:32;;;;;;;;;;;;;;;;;;5075619;28;1408;-78
2022/11/29 11:53:00;;;;;;;;;;;;;;;;;;5074244;28;1134;-79
2022/11/29 11:55:30;;;;;;;;;;;;;;;;;;5075201;28;1918;-78
2022/11/29 11:57:58;;;;;;;;;;;;;;;;;;5076129;28;778;-79
2022/11/29 12:00:38;;;;;;;;;;;;;;;;;;5076067;28;1313;-78
2022/11/29 12:03:05;;;;;;;;;;;;;;;;;;5077237;28;905;-78
2022/11/29 12:05:31;;;;;;;;;;;;;;;;;;5060180;28;1052;-78
2022/11/29 12:07:58;;;;;;;;;;;;;;;;;;5075850;28;865;-79
2022/11/29 12:10:25;;;;;;;;;;;;;;;;;;5074703;28;1411;-79
2022/11/29 12:12:51;;;;;;;;;;;;;;;;;;5074357;28;937;-80
2022/11/29 12:15:18;;;;;;;;;;;;;;;;;;5056007;28;1997;-78
2022/11/29 12:17:47;;;;;;;;;;;;;;;;;;5073918;28;1119;-79
2022/11/29 12:20:16;;;;;;;;;;;;;;;;;;5072468;28;1329;-78
2022/11/29 12:22:43;;;;;;;;;;;;;;;;;;5072837;28;1075;-79
2022/11/29 12:25:10;;;;;;;;;;;;;;;;;;5073277;28;1078;-78
2022/11/29 12:27:36;;;;;;;;;;;;;;;;;;5072546;28;1211;-79
2022/11/29 12:30:05;;;;;;;;;;;;;;;;;;5072743;28;1225;-79
2022/11/29 12:32:42;;;;;;;;;;;;;;;;;;5072446;28;1356;-78
2022/11/29 12:35:23;;;;;;;;;;;;;;;;;;5073967;28;1894;-79
2022/11/29 12:37:50;;;;;;;;;;;;;;;;;;5076336;28;1364;-79
2022/11/29 12:40:17;;;;;;;;;;;;;;;;;;5063671;28;1455;-79
2022/11/29 12:42:46;;;;;;;;;;;;;;;;;;5059239;28;1171;-78
2022/11/29 12:45:19;;;;;;;;;;;;;;;;;;5062988;28;1281;-79
2022/11/29 12:47:47;;;;;;;;;;;;;;;;;;5053069;28;1256;-79
2022/11/29 12:50:16;;;;;;;;;;;;;;;;;;5056889;28;1302;-79
2022/11/29 12:52:45;;;;;;;;;;;;;;;;;;5056040;28;1147;-78
2022/11/29 12:55:16;;;;;;;;;;;;;;;;;;5058768;28;1965;-79
2022/11/29 12:57:43;;;;;;;;;;;;;;;;;;5059910;28;1041;-79
2022/11/29 13:00:11;;;;;;;;;;;;;;;;;;5059338;28;1385;-79
2022/11/29 13:02:42;;;;;;;;;;;;;;;;;;5072796;28;1203;-78
2022/11/29 13:05:11;;;;;;;;;;;;;;;;;;5076085;28;1089;-79
2022/11/29 13:07:39;;;;;;;;;;;;;;;;;;5058582;28;1208;-79
2022/11/29 13:10:18;;;;;;;;;;;;;;;;;;5058454;28;1428;-78
2022/11/29 13:12:45;;;;;;;;;;;;;;;;;;5075510;28;1138;-79
2022/11/29 13:15:13;;;;;;;;;;;;;;;;;;5076325;28;1909;-79
2022/11/29 13:17:41;;;;;;;;;;;;;;;;;;5077097;28;810;-79
2022/11/29 13:20:13;;;;;;;;;;;;;;;;;;5077790;28;1060;-79
2022/11/29 13:22:40;;;;;;;;;;;;;;;;;;5075344;28;1119;-79
2022/11/29 13:25:11;;;;;;;;;;;;;;;;;;5076799;28;937;-78
2022/11/29 13:27:40;;;;;;;;;;;;;;;;;;5060782;28;993;-78
2022/11/29 13:30:07;;;;;;;;;;;;;;;;;;5079389;28;1365;-79
2022/11/29 13:32:34;;;;;;;;;;;;;;;;;;5057822;28;1474;-80
2022/11/29 13:35:01;;;;;;;;;;;;;;;;;;5076919;28;1910;-78
2022/11/29 13:37:29;;;;;;;;;;;;;;;;;;5058657;28;1281;-79
2022/11/29 13:39:57;;;;;;;;;;;;;;;;;;5068729;28;1256;-79
2022/11/29 13:42:25;;;;;;;;;;;;;;;;;;5070635;28;1408;-78
2022/11/29 13:44:55;;;;;;;;;;;;;;;;;;5086806;22;3699;-79
2022/11/29 13:47:21;;;;;;;;;;;;;;;;;;5000914;28;1285;-78
2022/11/29 13:49:55;;;;;;;;;;;;;;;;;;5027831;28;1128;-78
2022/11/29 13:52:30;;;;;;;;;;;;;;;;;;5017939;28;1077;-77
2022/11/29 13:55:17;;;;;;;;;;;;;;;;;;5028846;28;1958;-79
2022/11/29 13:57:46;;;;;;;;;;;;;;;;;;5033921;28;952;-77
2022/11/29 14:00:25;;;;;;;;;;;;;;;;;;5015678;28;1246;-80
2022/11/29 14:02:51;;;;;;;;;;;;;;;;;;5032168;28;961;-79
2022/11/29 14:05:23;;;;;;;;;;;;;;;;;;5011309;28;1490;-79
2022/11/29 14:08:04;;;;;;;;;;;;;;;;;;5033419;28;1069;-79
2022/11/29 14:10:30;;;;;;;;;;;;;;;;;;5032831;28;1603;-78
2022/11/29 14:12:58;;;;;;;;;;;;;;;;;;5033402;28;890;-79
2022/11/29 14:15:27;;;;;;;;;;;;;;;;;;5019454;28;1984;-79
2022/11/29 14:17:54;;;;;;;;;;;;;;;;;;5051431;28;996;-79
2022/11/29 14:20:50;;;;;;;;;;;;;;;;;;5053856;28;1099;-77
2022/11/29 14:23:17;;;;;;;;;;;;;;;;;;5050802;28;1044;-77
2022/11/29 14:25:59;;;;;;;;;;;;;;;;;;5036146;28;1301;-78
2022/11/29 14:28:27;;;;;;;;;;;;;;;;;;5032821;28;1082;-77
2022/11/29 14:30:55;;;;;;;;;;;;;;;;;;5033028;28;1110;-77
2022/11/29 14:33:39;;;;;;;;;;;;;;;;;;5032191;28;1099;-78
2022/11/29 14:36:13;;;;;;;;;;;;;;;;;;5021615;28;2096;-78
2022/11/29 14:38:41;;;;;;;;;;;;;;;;;;5033077;28;1126;-77
2022/11/29 14:41:14;;;;;;;;;;;;;;;;;;5015902;28;822;-78
2022/11/29 14:43:40;;;;;;;;;;;;;;;;;;5032561;28;786;-78
2022/11/29 14:46:08;;;;;;;;;;;;;;;;;;5032228;28;1377;-78
2022/11/29 14:48:34;;;;;;;;;;;;;;;;;;5032864;28;1103;-78
2022/11/29 14:51:07;;;;;;;;;;;;;;;;;;5014357;28;1314;-78
2022/11/29 14:53:34;;;;;;;;;;;;;;;;;;5021408;28;1170;-78
2022/11/29 14:56:15;;;;;;;;;;;;;;;;;;5051698;28;1912;-78
2022/11/29 14:58:41;;;;;;;;;;;;;;;;;;5023021;28;1426;-78
2022/11/29 15:01:09;;;;;;;;;;;;;;;;;;5014107;28;1307;-77
2022/11/29 15:03:39;;;;;;;;;;;;;;;;;;5014135;28;1187;-77
2022/11/29 15:06:11;;;;;;;;;;;;;;;;;;5032869;28;1408;-78
2022/11/29 15:08:38;;;;;;;;;;;;;;;;;;5033520;28;858;-76
2022/11/29 15:11:05;;;;;;;;;;;;;;;;;;5032794;28;1765;-78
2022/11/29 15:13:34;;;;;;;;;;;;;;;;;;5013301;28;1238;-78
2022/11/29 15:16:18;;;;;;;;;;;;;;;;;;5014084;28;1973;-76
2022/11/29 15:18:54;;;;;;;;;;;;;;;;;;5021784;28;1268;-77
2022/11/29 15:21:22;;;;;;;;;;;;;;;;;;5018203;28;1212;-76
2022/11/29 15:23:52;;;;;;;;;;;;;;;;;;5020374;28;2086;-75
2022/11/29 15:26:19;;;;;;;;;;;;;;;;;;5031095;28;1387;-76
2022/11/29 15:28:45;;;;;;;;;;;;;;;;;;5031356;28;1017;-77
2022/11/29 15:31:13;;;;;;;;;;;;;;;;;;5022280;28;1121;-75
2022/11/29 15:33:39;;;;;;;;;;;;;;;;;;5019739;28;1317;-77
2022/11/29 15:36:08;;;;;;;;;;;;;;;;;;5001024;28;1910;-76
2022/11/29 15:38:40;;;;;;;;;;;;;;;;;;5019682;28;1284;-77
2022/11/29 15:41:16;;;;;;;;;;;;;;;;;;5019994;28;1204;-77
2022/11/29 15:43:43;;;;;;;;;;;;;;;;;;5020680;28;1233;-77
2022/11/29 15:46:09;;;;;;;;;;;;;;;;;;5027286;28;1476;-78
2022/11/29 15:48:35;;;;;;;;;;;;;;;;;;5024952;28;1311;-77
2022/11/29 15:51:03;;;;;;;;;;;;;;;;;;5022101;28;1295;-77
2022/11/29 15:53:33;;;;;;;;;;;;;;;;;;5031126;28;1208;-77
2022/11/29 15:56:00;;;;;;;;;;;;;;;;;;5050898;28;1979;-76
2022/11/29 15:58:26;;;;;;;;;;;;;;;;;;5051076;28;810;-78
2022/11/29 16:00:52;;;;;;;;;;;;;;;;;;5050735;28;795;-78
2022/11/29 16:03:20;;;;;;;;;;;;;;;;;;5049661;28;1068;-77
2022/11/29 16:05:49;;;;;;;;;;;;;;;;;;5050707;28;1404;-77
2022/11/29 16:08:16;;;;;;;;;;;;;;;;;;5050741;28;849;-78
2022/11/29 16:10:46;;;;;;;;;;;;;;;;;;5032429;28;1162;-76
2022/11/29 16:13:25;;;;;;;;;;;;;;;;;;5049720;28;964;-77
2022/11/29 16:16:01;;;;;;;;;;;;;;;;;;5050092;28;1914;-77
2022/11/29 16:18:28;;;;;;;;;;;;;;;;;;5040094;28;1111;-77
2022/11/29 16:20:58;;;;;;;;;;;;;;;;;;5030417;28;957;-79
2022/11/29 16:23:32;;;;;;;;;;;;;;;;;;5029915;28;1064;-77
2022/11/29 16:26:01;;;;;;;;;;;;;;;;;;5030258;28;1324;-76
2022/11/29 16:28:29;;;;;;;;;;;;;;;;;;5027234;28;1188;-76
2022/11/29 16:30:55;;;;;;;;;;;;;;;;;;5010672;28;839;-76
2022/11/29 16:33:22;;;;;;;;;;;;;;;;;;4992443;28;1266;-77
2022/11/29 16:35:49;;;;;;;;;;;;;;;;;;5010533;28;1915;-77
2022/11/29 16:38:17;;;;;;;;;;;;;;;;;;5025036;28;1515;-77
2022/11/29 16:40:43;;;;;;;;;;;;;;;;;;5013705;28;1227;-78
2022/11/29 16:43:22;;;;;;;;;;;;;;;;;;5031538;28;1341;-78
2022/11/29 16:45:49;;;;;;;;;;;;;;;;;;5033864;28;1279;-79
2022/11/29 16:48:30;;;;;;;;;;;;;;;;;;5050586;28;2090;-78
2022/11/29 16:51:15;;;;;;;;;;;;;;;;;;5040115;28;1134;-77
2022/11/29 16:53:41;;;;;;;;;;;;;;;;;;5021627;28;1222;-78
2022/11/29 16:56:08;;;;;;;;;;;;;;;;;;5050576;28;1995;-77
2022/11/29 16:58:35;;;;;;;;;;;;;;;;;;5050709;28;1064;-76
2022/11/29 17:01:15;;;;;;;;;;;;;;;;;;5032431;28;1420;-77
2022/11/29 17:03:41;;;;;;;;;;;;;;;;;;5031998;28;929;-77
2022/11/29 17:06:08;;;;;;;;;;;;;;;;;;5050030;28;1359;-78
2022/11/29 17:08:35;;;;;;;;;;;;;;;;;;5050322;28;956;-77
2022/11/29 17:11:01;;;;;;;;;;;;;;;;;;5050741;28;888;-76
2022/11/29 17:13:27;;;;;;;;;;;;;;;;;;5049771;28;965;-77
2022/11/29 17:15:55;;;;;;;;;;;;;;;;;;5049557;28;1965;-77
2022/11/29 17:18:21;;;;;;;;;;;;;;;;;;5032204;28;1393;-77
2022/11/29 17:20:48;;;;;;;;;;;;;;;;;;5016797;28;1203;-77
2022/11/29 17:23:14;;;;;;;;;;;;;;;;;;5032781;28;670;-77
2022/11/29 17:25:40;;;;;;;;;;;;;;;;;;5018370;28;1345;-77